Time;durP1;ratioP1;P1;durP2;ratioP2;P2;SDS_P1;SDS_P2;PMS_P1;PMS_P2;Temp;Humidity;BMP_temperature;BMP_pressure;BME280_temperature;BME280_humidity;BME280_pressure;Samples;Min_cycle;Max_cycle;Signal;HPM_P1;HPM_P2
2021/12/25 00:01:07;;;;;;;5.32;3.15;;;;;;;11.25;95.31;99739.13;7395098;19;20016;-67
2021/12/25 00:03:37;;;;;;;7.82;3.03;;;;;;;11.24;95.27;99732.22;7394487;19;20010;-66
2021/12/25 00:06:05;;;;;;;5.82;2.60;;;;;;;11.26;95.37;99732.06;7375180;19;20097;-67
2021/12/25 00:08:32;;;;;;;7.35;3.03;;;;;;;11.27;94.83;99733.69;7381057;19;20081;-68
2021/12/25 00:11:01;;;;;;;6.13;3.50;;;;;;;11.29;94.74;99732.50;7393252;19;20349;-66
2021/12/25 00:13:28;;;;;;;5.55;2.85;;;;;;;11.28;94.93;99737.94;7391946;19;20006;-66
2021/12/25 00:15:54;;;;;;;7.22;2.90;;;;;;;11.25;95.12;99738.31;7390457;19;20015;-66
2021/12/25 00:18:21;;;;;;;8.35;3.55;;;;;;;11.24;95.38;99750.66;7388322;19;20014;-66
2021/12/25 00:20:49;;;;;;;8.15;3.40;;;;;;;11.23;95.53;99738.50;7393609;19;20007;-68
2021/12/25 00:23:19;;;;;;;8.35;3.95;;;;;;;11.23;95.46;99737.69;7391429;19;20502;-69
2021/12/25 00:25:52;;;;;;;8.07;3.40;;;;;;;11.19;95.23;99731.97;7392363;19;20022;-67
2021/12/25 00:36:15;;;;;;;7.60;3.60;;;;;;;11.25;95.33;99748.84;7392092;19;20006;-67
2021/12/25 00:38:42;;;;;;;9.18;4.28;;;;;;;11.25;95.37;99738.31;7387481;19;20080;-67
2021/12/25 00:41:11;;;;;;;9.15;4.28;;;;;;;11.23;95.24;99746.41;7389256;19;20007;-67
2021/12/25 00:43:38;;;;;;;7.20;3.95;;;;;;;11.21;95.45;99747.59;7391965;19;20006;-67
2021/12/25 00:46:05;;;;;;;17.52;6.72;;;;;;;11.19;95.31;99753.03;7392266;19;20471;-66
2021/12/25 00:48:33;;;;;;;11.50;5.22;;;;;;;11.25;95.99;99759.38;7389726;19;20345;-66
2021/12/25 00:51:00;;;;;;;7.25;3.63;;;;;;;11.26;96.05;99758.38;7389073;19;20485;-66
2021/12/25 00:53:27;;;;;;;7.05;3.38;;;;;;;11.24;95.39;99755.94;7390793;19;20033;-67
2021/12/25 00:55:54;;;;;;;8.05;3.75;;;;;;;11.19;95.34;99753.03;7388137;19;20014;-66
2021/12/25 00:58:21;;;;;;;6.70;3.55;;;;;;;11.24;95.01;99752.47;7392230;19;20009;-67
2021/12/25 01:00:48;;;;;;;7.45;3.38;;;;;;;11.23;94.93;99753.47;7392827;19;20086;-68
2021/12/25 01:03:16;;;;;;;5.93;2.90;;;;;;;11.17;94.80;99749.78;7393039;19;20013;-68
2021/12/25 01:05:43;;;;;;;7.93;3.90;;;;;;;11.14;95.18;99758.84;7390776;19;20007;-65
2021/12/25 01:08:10;;;;;;;7.38;3.67;;;;;;;11.17;95.42;99754.22;7392360;19;20017;-66
2021/12/25 01:10:37;;;;;;;8.35;3.25;;;;;;;11.12;95.05;99763.47;7389257;19;20070;-66
2021/12/25 01:13:16;;;;;;;7.13;2.80;;;;;;;11.08;95.21;99769.28;7389370;19;20011;-68
2021/12/25 01:18:59;;;;;;;6.10;3.08;;;;;;;11.06;95.16;99763.41;7389098;19;20018;-65
2021/12/25 01:37:00;;;;;;;4.88;2.70;;;;;;;10.95;95.02;99746.25;7388094;19;20093;-67
2021/12/25 01:47:59;;;;;;;5.55;2.00;;;;;;;10.85;95.23;99768.56;7389876;19;20007;-67
2021/12/25 01:50:30;;;;;;;3.92;1.75;;;;;;;10.81;94.82;99765.50;7395410;19;20926;-66
2021/12/25 01:52:57;;;;;;;5.82;2.28;;;;;;;10.78;95.19;99770.28;7395229;19;20010;-67
2021/12/25 01:55:29;;;;;;;5.05;2.50;;;;;;;10.78;95.56;99770.28;7393174;19;20007;-66
2021/12/25 01:57:59;;;;;;;4.60;2.60;;;;;;;10.78;95.52;99771.09;7399618;19;20014;-67
2021/12/25 02:00:37;;;;;;;4.93;2.25;;;;;;;10.76;95.72;99774.91;7393158;19;20023;-68
2021/12/25 02:03:08;;;;;;;15.38;3.33;;;;;;;10.73;96.14;99781.34;7393494;19;20133;-68
2021/12/25 02:05:35;;;;;;;7.20;3.17;;;;;;;10.73;96.59;99776.09;7394969;19;20468;-67
2021/12/25 02:08:20;;;;;;;5.47;2.58;;;;;;;10.77;96.40;99779.97;7395882;19;20010;-66
2021/12/25 02:10:48;;;;;;;7.00;2.90;;;;;;;10.78;96.31;99784.25;7393282;19;20066;-67
2021/12/25 02:13:16;;;;;;;7.40;3.72;;;;;;;10.82;96.43;99796.03;7397569;19;20011;-66
2021/12/25 02:15:48;;;;;;;5.65;2.75;;;;;;;10.84;95.35;99788.81;7392979;19;20594;-66
2021/12/25 02:18:24;;;;;;;5.60;2.42;;;;;;;10.81;95.13;99789.19;7394092;19;20013;-66
2021/12/25 02:21:11;;;;;;;6.45;2.80;;;;;;;10.79;95.18;99783.25;7396543;19;20018;-66
2021/12/25 02:23:39;;;;;;;8.43;3.35;;;;;;;10.77;95.79;99794.97;7394474;19;20037;-66
2021/12/25 02:26:07;;;;;;;5.93;2.60;;;;;;;10.78;96.11;99794.78;7397261;19;20472;-66
2021/12/25 02:28:34;;;;;;;8.43;3.53;;;;;;;10.75;96.02;99796.97;7394572;19;20388;-66
2021/12/25 02:31:06;;;;;;;7.70;3.35;;;;;;;10.75;96.01;99795.16;7394069;19;20015;-66
2021/12/25 02:33:33;;;;;;;10.18;4.40;;;;;;;10.73;96.42;99795.31;7393890;19;20011;-67
2021/12/25 02:36:01;;;;;;;8.05;3.45;;;;;;;10.75;96.27;99810.13;7392295;19;20037;-70
2021/12/25 02:38:28;;;;;;;7.72;3.67;;;;;;;10.72;96.27;99798.94;7392177;19;20006;-67
2021/12/25 02:40:55;;;;;;;7.93;3.50;;;;;;;10.75;96.22;99794.31;7393185;19;20021;-65
2021/12/25 02:43:23;;;;;;;8.95;4.00;;;;;;;10.78;96.11;99805.31;7393980;19;20006;-66
2021/12/25 02:45:54;;;;;;;9.60;3.88;;;;;;;10.83;96.33;99810.03;7392112;19;20042;-66
2021/12/25 02:48:22;;;;;;;9.48;3.60;;;;;;;10.85;95.90;99800.16;7390035;19;20015;-66
2021/12/25 02:50:50;;;;;;;13.82;3.22;;;;;;;10.85;96.10;99808.03;7391666;19;20015;-65
2021/12/25 02:53:18;;;;;;;9.27;3.90;;;;;;;10.86;95.92;99802.59;7389603;19;20010;-66
2021/12/25 02:55:47;;;;;;;10.00;4.28;;;;;;;10.88;95.95;99794.50;7392965;19;20015;-66
2021/12/25 02:58:15;;;;;;;8.35;3.13;;;;;;;10.88;96.22;99799.78;7392676;19;20740;-67
2021/12/25 03:00:48;;;;;;;7.75;2.88;;;;;;;10.87;95.92;99804.22;7391604;19;20026;-67
2021/12/25 03:03:16;;;;;;;8.55;3.80;;;;;;;10.91;96.46;99800.25;7392841;19;20066;-65
2021/12/25 03:05:44;;;;;;;9.02;4.00;;;;;;;10.94;96.35;99802.50;7393812;19;20022;-67
2021/12/25 03:08:12;;;;;;;9.27;3.92;;;;;;;10.92;96.29;99793.19;7391478;19;20042;-66
2021/12/25 03:10:40;;;;;;;75.28;6.80;;;;;;;10.93;96.51;99806.13;7391913;19;20010;-67
2021/12/25 03:18:19;;;;;;;7.18;3.08;;;;;;;10.90;96.31;99793.34;7391324;19;20010;-67
2021/12/25 03:20:49;;;;;;;11.80;4.03;;;;;;;10.92;96.72;99796.59;7391060;19;20011;-67
2021/12/25 03:23:19;;;;;;;6.22;3.08;;;;;;;10.94;96.46;99799.88;7389380;19;20142;-66
2021/12/25 03:25:49;;;;;;;8.25;3.35;;;;;;;10.93;95.99;99795.59;7388405;19;20015;-67
2021/12/25 03:28:17;;;;;;;6.13;3.20;;;;;;;10.96;95.57;99795.25;7392935;19;20011;-67
2021/12/25 03:30:45;;;;;;;7.93;3.38;;;;;;;10.93;95.43;99797.41;7388294;19;20038;-67
2021/12/25 03:33:15;;;;;;;8.48;3.55;;;;;;;10.92;95.44;99795.81;7392735;19;20021;-66
2021/12/25 03:35:46;;;;;;;74.72;6.65;;;;;;;10.91;95.78;99796.81;7386135;19;20009;-66
2021/12/25 03:38:19;;;;;;;11.00;4.63;;;;;;;10.92;95.84;99801.88;7386608;19;20590;-67
2021/12/25 03:40:49;;;;;;;9.20;3.97;;;;;;;10.91;96.10;99795.00;7387800;19;20025;-66
2021/12/25 03:43:19;;;;;;;12.48;4.53;;;;;;;10.94;95.28;99806.97;7387250;19;20018;-66
2021/12/25 03:45:47;;;;;;;8.57;4.10;;;;;;;10.92;95.32;99799.22;7392669;19;20026;-67
2021/12/25 03:48:41;;;;;;;9.88;4.32;;;;;;;10.91;95.06;99804.69;7390802;19;20442;-66
2021/12/25 03:58:36;;;;;;;10.85;4.72;;;;;;;10.86;95.39;99804.41;7389310;19;20014;-66
2021/12/25 04:06:09;;;;;;;12.30;5.53;;;;;;;10.83;94.92;99815.28;7389033;19;20022;-68
2021/12/25 04:13:42;;;;;;;9.45;4.78;;;;;;;10.76;95.20;99823.09;7385491;19;20014;-66
2021/12/25 04:16:12;;;;;;;10.02;3.95;;;;;;;10.75;94.66;99818.81;7386754;19;20007;-66
2021/12/25 04:18:42;;;;;;;38.42;6.47;;;;;;;10.74;94.75;99822.44;7385918;19;20006;-67
2021/12/25 04:21:10;;;;;;;8.82;4.38;;;;;;;10.78;94.72;99836.88;7391391;19;20130;-67
2021/12/25 04:23:40;;;;;;;10.15;4.35;;;;;;;10.82;94.22;99834.72;7386587;19;20021;-67
2021/12/25 04:26:08;;;;;;;9.95;4.18;;;;;;;10.80;94.60;99841.97;7386053;19;20320;-67
2021/12/25 04:28:42;;;;;;;8.32;4.35;;;;;;;10.76;94.70;99828.38;7387701;19;20002;-66
2021/12/25 05:04:15;;;;;;;10.88;4.93;;;;;;;10.83;94.51;99841.59;7388550;19;20314;-66
2021/12/25 05:06:42;;;;;;;15.65;5.72;;;;;;;10.83;94.49;99852.94;7386138;19;20691;-66
2021/12/25 05:09:09;;;;;;;13.38;5.20;;;;;;;10.85;94.92;99847.50;7388741;19;20022;-66
2021/12/25 05:11:42;;;;;;;12.13;5.28;;;;;;;10.85;94.44;99861.50;7387147;19;20011;-68
2021/12/25 05:14:09;;;;;;;16.23;7.15;;;;;;;10.85;94.67;99853.59;7385365;19;20010;-66
2021/12/25 05:16:37;;;;;;;13.48;5.10;;;;;;;10.89;95.00;99868.03;7386270;19;20712;-67
2021/12/25 05:19:05;;;;;;;10.75;4.82;;;;;;;10.87;94.63;99864.75;7385493;19;20011;-67
2021/12/25 05:21:32;;;;;;;12.07;4.93;;;;;;;10.81;94.38;99862.03;7389530;19;20018;-66
2021/12/25 05:24:00;;;;;;;14.23;5.78;;;;;;;10.82;94.32;99868.94;7393990;19;20022;-66
2021/12/25 05:26:27;;;;;;;13.48;5.40;;;;;;;10.82;94.35;99882.88;7394260;19;20002;-66
2021/12/25 05:31:27;;;;;;;12.35;5.18;;;;;;;10.81;93.97;99883.91;7395501;19;20011;-66
2021/12/25 05:33:56;;;;;;;15.77;6.30;;;;;;;10.80;93.94;99884.88;7392628;19;20030;-68
2021/12/25 05:36:24;;;;;;;11.77;4.55;;;;;;;10.82;94.06;99888.16;7390930;19;20038;-66
2021/12/25 05:38:56;;;;;;;13.27;5.50;;;;;;;10.81;94.37;99886.53;7390218;19;20019;-66
2021/12/25 05:41:26;;;;;;;16.60;6.20;;;;;;;10.81;94.82;99883.09;7391452;19;20011;-67
2021/12/25 05:43:54;;;;;;;12.93;6.10;;;;;;;10.83;94.77;99889.78;7391976;19;20007;-66
2021/12/25 05:46:22;;;;;;;14.88;5.47;;;;;;;10.81;94.76;99878.63;7391696;19;20038;-66
2021/12/25 05:48:50;;;;;;;16.80;6.57;;;;;;;10.80;94.65;99887.53;7394561;19;20003;-68
2021/12/25 05:51:18;;;;;;;15.35;6.25;;;;;;;10.78;94.15;99888.69;7397444;19;20019;-66
2021/12/25 05:53:47;;;;;;;14.65;5.63;;;;;;;10.77;94.26;99887.84;7394612;19;20719;-67
2021/12/25 05:56:15;;;;;;;14.65;6.18;;;;;;;10.76;94.52;99883.63;7390074;19;20015;-65
2021/12/25 05:58:43;;;;;;;15.43;5.43;;;;;;;10.75;94.33;99889.88;7393171;19;20006;-66
2021/12/25 06:01:11;;;;;;;15.65;5.40;;;;;;;10.68;94.75;99889.75;7392990;19;20015;-66
2021/12/25 06:03:39;;;;;;;12.98;5.78;;;;;;;10.68;94.79;99886.28;7394551;19;20007;-67
2021/12/25 06:06:07;;;;;;;15.32;5.35;;;;;;;10.69;94.61;99891.38;7394726;19;20761;-66
2021/12/25 06:08:35;;;;;;;27.33;6.40;;;;;;;10.71;94.26;99894.69;7392495;19;20019;-66
2021/12/25 06:11:03;;;;;;;12.13;5.57;;;;;;;10.72;94.55;99903.34;7394985;19;20051;-66
2021/12/25 06:13:38;;;;;;;9.93;4.15;;;;;;;10.76;93.91;99906.47;7390746;19;20018;-66
2021/12/25 06:16:05;;;;;;;11.88;4.78;;;;;;;10.75;94.30;99910.09;7389841;19;20014;-66
2021/12/25 06:18:33;;;;;;;20.50;6.15;;;;;;;10.72;94.33;99912.06;7396691;19;20003;-65
2021/12/25 06:21:00;;;;;;;14.77;6.03;;;;;;;10.74;94.57;99911.91;7396048;19;19998;-66
2021/12/25 06:23:29;;;;;;;11.18;4.72;;;;;;;10.73;94.75;99911.09;7394198;19;20014;-66
2021/12/25 06:26:01;;;;;;;10.52;4.95;;;;;;;10.73;94.80;99912.88;7394117;19;20034;-66
2021/12/25 06:28:31;;;;;;;11.88;4.85;;;;;;;10.75;94.20;99915.34;7394226;19;20003;-67
2021/12/25 06:31:03;;;;;;;11.35;5.22;;;;;;;10.76;94.52;99917.81;7395596;19;20019;-67
2021/12/25 06:33:32;;;;;;;11.13;5.05;;;;;;;10.76;94.61;99911.75;7392038;19;20738;-67
2021/12/25 06:36:00;;;;;;;10.15;4.78;;;;;;;10.75;93.60;99923.25;7394824;19;20491;-66
2021/12/25 06:38:27;;;;;;;9.75;4.05;;;;;;;10.74;93.85;99909.28;7391353;19;20006;-66
2021/12/25 06:40:55;;;;;;;9.68;4.13;;;;;;;10.74;93.93;99917.16;7396547;19;20349;-66
2021/12/25 06:43:22;;;;;;;9.85;4.45;;;;;;;10.71;94.08;99915.72;7394559;19;20030;-66
2021/12/25 06:45:50;;;;;;;12.85;4.90;;;;;;;10.69;94.13;99908.97;7392790;19;20011;-65
2021/12/25 06:48:17;;;;;;;10.90;4.78;;;;;;;10.72;94.64;99913.88;7394218;19;20007;-66
2021/12/25 06:50:45;;;;;;;7.95;4.00;;;;;;;10.72;94.21;99922.59;7394017;19;20728;-65
2021/12/25 06:53:12;;;;;;;9.98;3.75;;;;;;;10.71;94.15;99907.81;7391997;19;20050;-66
2021/12/25 06:55:40;;;;;;;32.65;7.35;;;;;;;10.72;94.07;99919.97;7392554;19;20007;-67
2021/12/25 06:58:08;;;;;;;7.85;3.20;;;;;;;10.74;94.13;99919.78;7392190;19;20605;-66
2021/12/25 07:00:36;;;;;;;6.60;3.00;;;;;;;10.71;93.90;99918.34;7392019;19;20835;-67
2021/12/25 07:03:04;;;;;;;7.57;2.90;;;;;;;10.69;93.49;99925.59;7392910;19;20090;-67
2021/12/25 07:05:31;;;;;;;8.63;3.42;;;;;;;10.66;93.40;99925.13;7392348;19;20002;-66
2021/12/25 07:07:58;;;;;;;4.72;2.25;;;;;;;10.62;93.55;99923.81;7392555;19;20027;-67
2021/12/25 07:10:26;;;;;;;5.50;2.28;;;;;;;10.60;93.42;99923.19;7391669;19;20015;-67
2021/12/25 07:12:54;;;;;;;5.45;2.10;;;;;;;10.60;93.38;99920.56;7393970;19;20467;-67
2021/12/25 07:15:21;;;;;;;11.50;2.70;;;;;;;10.61;94.12;99924.84;7394312;19;20009;-66
2021/12/25 07:17:49;;;;;;;8.80;2.58;;;;;;;10.59;94.01;99925.00;7393861;19;20006;-66
2021/12/25 07:20:16;;;;;;;3.53;1.52;;;;;;;10.60;93.33;99929.28;7393763;19;20075;-67
2021/12/25 07:22:44;;;;;;;5.35;1.65;;;;;;;10.57;93.23;99934.88;7391907;19;20026;-67
2021/12/25 07:25:11;;;;;;;5.10;1.25;;;;;;;10.56;93.61;99937.69;7391332;19;20071;-68
2021/12/25 07:27:39;;;;;;;3.13;1.50;;;;;;;10.50;92.60;99944.47;7392487;19;20037;-67
2021/12/25 07:30:08;;;;;;;7.00;0.93;;;;;;;10.51;92.43;99943.47;7392079;19;20033;-67
2021/12/25 07:32:36;;;;;;;3.83;0.73;;;;;;;10.49;92.41;99942.81;7391623;19;20006;-66
2021/12/25 07:35:05;;;;;;;1.63;0.60;;;;;;;10.47;92.49;99947.44;7393712;19;20011;-67
2021/12/25 07:37:33;;;;;;;2.65;0.50;;;;;;;10.41;92.01;99950.78;7389014;19;20033;-65
2021/12/25 07:40:04;;;;;;;1.73;0.40;;;;;;;10.40;91.19;99943.88;7391248;19;20018;-68
2021/12/25 07:42:31;;;;;;;1.35;0.30;;;;;;;10.32;91.09;99950.97;7390900;19;20329;-66
2021/12/25 07:45:04;;;;;;;3.85;0.77;;;;;;;10.30;91.51;99940.66;7391949;19;20010;-68
2021/12/25 07:47:34;;;;;;;0.60;0.30;;;;;;;10.32;91.76;99949.16;7392169;19;19998;-67
2021/12/25 07:50:03;;;;;;;1.73;0.30;;;;;;;10.25;91.49;99953.50;7390625;19;20028;-66
2021/12/25 07:52:31;;;;;;;2.92;0.50;;;;;;;10.25;91.47;99961.38;7391378;19;20038;-67
2021/12/25 07:54:58;;;;;;;2.45;0.40;;;;;;;10.27;92.03;99969.91;7393562;19;20037;-66
2021/12/25 07:57:26;;;;;;;1.75;0.40;;;;;;;10.29;91.83;99957.41;7389714;19;20588;-65
2021/12/25 07:59:53;;;;;;;2.80;0.30;;;;;;;10.32;92.03;99975.47;7391163;19;20011;-66
2021/12/25 08:02:20;;;;;;;2.15;0.40;;;;;;;10.34;91.46;99970.03;7394091;19;20006;-65
2021/12/25 08:04:49;;;;;;;1.40;0.50;;;;;;;10.28;91.77;99974.16;7391723;19;20006;-66
2021/12/25 08:07:17;;;;;;;1.27;0.25;;;;;;;10.19;91.57;99972.56;7391859;19;20487;-66
2021/12/25 08:09:44;;;;;;;2.72;0.40;;;;;;;10.18;91.94;99974.38;7393435;19;20033;-67
2021/12/25 08:12:12;;;;;;;20.90;1.05;;;;;;;10.19;91.59;99983.91;7393432;19;20041;-67
2021/12/25 08:14:39;;;;;;;0.68;0.30;;;;;;;10.18;91.28;99976.19;7393256;19;20011;-66
2021/12/25 08:17:06;;;;;;;0.90;0.30;;;;;;;10.10;91.33;99989.34;7390070;19;20360;-66
2021/12/25 08:19:34;;;;;;;1.02;0.20;;;;;;;10.11;91.07;99990.97;7392302;19;20470;-66
2021/12/25 08:22:01;;;;;;;2.55;0.32;;;;;;;10.12;91.94;99987.34;7389426;19;20352;-66
2021/12/25 08:24:29;;;;;;;1.73;0.30;;;;;;;10.12;91.91;100003.13;7392527;19;20130;-67
2021/12/25 08:27:00;;;;;;;0.65;0.20;;;;;;;10.09;92.14;99998.22;7390731;19;20807;-66
2021/12/25 08:29:28;;;;;;;3.17;0.30;;;;;;;10.09;91.96;99998.22;7391913;19;20022;-67
2021/12/25 08:31:55;;;;;;;0.30;0.20;;;;;;;10.10;92.15;100013.00;7390753;19;20013;-66
2021/12/25 08:34:23;;;;;;;0.63;0.25;;;;;;;10.11;92.01;100009.34;7392925;19;20131;-66
2021/12/25 08:36:50;;;;;;;0.90;0.45;;;;;;;10.05;92.00;100010.88;7390154;19;20440;-67
2021/12/25 08:39:18;;;;;;;1.15;0.30;;;;;;;10.11;91.72;100019.88;7389020;19;20525;-68
2021/12/25 08:41:45;;;;;;;2.40;0.77;;;;;;;10.12;92.03;100013.63;7390695;19;20352;-69
2021/12/25 08:44:33;;;;;;;0.70;0.28;;;;;;;10.12;92.03;100013.63;7389537;19;20018;-67
2021/12/25 08:47:06;;;;;;;1.05;0.40;;;;;;;10.11;91.57;100006.72;7389833;19;20018;-66
2021/12/25 08:49:34;;;;;;;1.65;0.30;;;;;;;10.08;91.53;100018.41;7387655;19;20015;-68
2021/12/25 08:52:07;;;;;;;1.20;0.50;;;;;;;10.10;92.18;100019.09;7392350;19;20014;-67
2021/12/25 08:54:35;;;;;;;2.15;0.38;;;;;;;10.11;92.17;100015.44;7385832;19;20010;-66
2021/12/25 08:57:03;;;;;;;1.52;0.40;;;;;;;10.12;91.80;100014.47;7389331;19;20011;-68
2021/12/25 08:59:31;;;;;;;17.83;3.15;;;;;;;10.13;91.82;100025.78;7396519;19;20006;-68
2021/12/25 09:01:58;;;;;;;1.27;0.60;;;;;;;10.13;92.67;100012.66;7394450;19;20033;-67
2021/12/25 09:04:26;;;;;;;1.00;0.40;;;;;;;10.11;92.68;100027.75;7392984;19;20006;-67
2021/12/25 09:06:53;;;;;;;0.93;0.40;;;;;;;10.11;91.91;100028.56;7392682;19;20018;-68
2021/12/25 09:09:21;;;;;;;3.08;0.63;;;;;;;10.08;91.76;100023.69;7393486;19;20014;-67
2021/12/25 09:11:48;;;;;;;0.85;0.40;;;;;;;10.09;92.20;100037.63;7397806;19;20011;-67
2021/12/25 09:14:16;;;;;;;0.57;0.28;;;;;;;10.10;91.88;100044.53;7392571;19;20017;-65
2021/12/25 09:16:44;;;;;;;3.38;0.40;;;;;;;10.06;91.78;100044.03;7391331;19;20038;-67
2021/12/25 09:19:11;;;;;;;16.13;1.38;;;;;;;10.06;92.09;100043.22;7392918;19;20034;-67
2021/12/25 09:21:39;;;;;;;2.17;0.40;;;;;;;10.08;92.24;100043.88;7396471;19;20010;-67
2021/12/25 09:24:07;;;;;;;2.30;0.32;;;;;;;10.09;91.09;100050.78;7394367;19;20021;-66
2021/12/25 09:26:35;;;;;;;0.80;0.30;;;;;;;10.08;91.03;100051.75;7393829;19;20034;-67
2021/12/25 09:29:03;;;;;;;2.47;0.50;;;;;;;10.09;91.48;100053.41;7392285;19;20018;-67
2021/12/25 09:31:31;;;;;;;1.13;0.30;;;;;;;10.04;91.82;100050.47;7392990;19;20367;-68
2021/12/25 09:33:59;;;;;;;1.23;0.30;;;;;;;10.04;91.13;100060.97;7392733;19;20418;-66
2021/12/25 09:36:27;;;;;;;1.00;0.30;;;;;;;10.07;91.18;100068.50;7391896;19;20035;-67
2021/12/25 09:38:55;;;;;;;4.75;0.40;;;;;;;10.07;91.04;100061.44;7394926;19;20017;-68
2021/12/25 09:41:22;;;;;;;2.17;0.30;;;;;;;10.07;90.88;100065.88;7394077;19;20010;-67
2021/12/25 09:43:50;;;;;;;0.50;0.30;;;;;;;10.05;90.94;100068.72;7396426;19;20098;-67
2021/12/25 09:46:20;;;;;;;1.80;0.35;;;;;;;10.03;90.96;100070.66;7393633;19;20014;-68
2021/12/25 09:48:50;;;;;;;1.95;0.40;;;;;;;10.05;90.63;100075.75;7391907;19;20022;-66
2021/12/25 09:51:18;;;;;;;1.40;0.30;;;;;;;10.03;90.81;100085.63;7395377;19;20010;-68
2021/12/25 09:53:52;;;;;;;0.95;0.30;;;;;;;9.98;90.39;100078.22;7391116;19;20527;-66
2021/12/25 09:56:19;;;;;;;2.70;0.30;;;;;;;9.99;90.53;100074.63;7390508;19;20520;-67
2021/12/25 09:58:47;;;;;;;1.23;0.30;;;;;;;9.98;90.33;100075.59;7394050;19;20408;-67
2021/12/25 10:01:32;;;;;;;1.20;0.30;;;;;;;9.95;89.77;100072.50;7391704;19;20030;-68
2021/12/25 10:04:01;;;;;;;0.77;0.38;;;;;;;9.87;89.61;100081.22;7391682;19;20474;-67
2021/12/25 10:06:37;;;;;;;1.63;0.30;;;;;;;9.92;90.36;100085.97;7391562;19;20042;-67
2021/12/25 10:09:13;;;;;;;0.63;0.20;;;;;;;9.93;89.35;100095.50;7389319;19;20103;-67
2021/12/25 10:11:59;;;;;;;0.65;0.30;;;;;;;9.88;89.17;100088.09;7392519;19;20035;-68
2021/12/25 10:14:31;;;;;;;3.38;0.20;;;;;;;9.86;90.29;100090.88;7391155;19;20006;-70
2021/12/25 10:17:12;;;;;;;0.55;0.40;;;;;;;9.86;89.17;100090.88;7389735;19;20017;-68
2021/12/25 10:19:41;;;;;;;4.10;0.38;;;;;;;9.85;88.98;100091.09;7390989;19;20470;-68
2021/12/25 10:22:12;;;;;;;1.85;0.32;;;;;;;9.85;89.04;100102.38;7394845;19;20031;-68
2021/12/25 10:24:49;;;;;;;0.68;0.32;;;;;;;9.83;88.99;100093.88;7394989;19;20399;-67
2021/12/25 10:27:20;;;;;;;3.00;0.25;;;;;;;9.80;88.94;100091.56;7392423;19;20476;-67
2021/12/25 10:29:57;;;;;;;1.10;0.38;;;;;;;9.78;89.54;100093.53;7393296;19;20029;-68
2021/12/25 10:32:25;;;;;;;4.45;0.50;;;;;;;9.72;89.66;100078.44;7394100;19;20036;-68
2021/12/25 10:34:54;;;;;;;1.52;0.38;;;;;;;9.73;89.74;100087.13;7391207;19;20015;-68
2021/12/25 10:37:22;;;;;;;0.70;0.40;;;;;;;9.76;89.71;100089.41;7388964;19;20013;-67
2021/12/25 10:39:52;;;;;;;3.45;0.50;;;;;;;9.76;89.98;100090.25;7391217;19;20011;-67
2021/12/25 10:42:24;;;;;;;2.67;0.32;;;;;;;9.76;88.96;100092.88;7390022;19;20015;-66
2021/12/25 10:44:58;;;;;;;2.33;0.40;;;;;;;9.77;88.47;100091.06;7394120;19;20010;-68
2021/12/25 10:47:30;;;;;;;2.30;0.38;;;;;;;9.72;89.07;100101.25;7391449;19;20011;-66
2021/12/25 10:50:08;;;;;;;3.13;0.32;;;;;;;9.70;88.81;100098.78;7395226;19;20019;-67
2021/12/25 10:52:42;;;;;;;2.78;0.22;;;;;;;9.71;88.58;100089.09;7395027;19;20384;-67
2021/12/25 10:55:15;;;;;;;1.23;0.20;;;;;;;9.69;88.53;100097.16;7390311;19;20038;-68
2021/12/25 10:57:48;;;;;;;1.00;0.28;;;;;;;9.70;86.97;100098.00;7390663;19;20621;-68
2021/12/25 11:00:20;;;;;;;1.13;0.20;;;;;;;9.66;86.80;100088.78;7394400;19;20003;-67
2021/12/25 11:02:53;;;;;;;1.42;0.13;;;;;;;9.67;87.14;100093.88;7393078;19;20029;-66
2021/12/25 11:05:26;;;;;;;0.63;0.20;;;;;;;9.68;87.59;100097.31;7392689;19;20006;-68
2021/12/25 11:08:04;;;;;;;1.52;0.20;;;;;;;9.64;86.77;100096.84;7389663;19;20010;-68
2021/12/25 11:10:40;;;;;;;2.80;0.40;;;;;;;9.68;87.18;100092.91;7393567;19;20006;-67
2021/12/25 11:13:19;;;;;;;1.52;0.30;;;;;;;9.72;86.81;100101.25;7394615;19;20006;-68
2021/12/25 11:15:47;;;;;;;0.75;0.50;;;;;;;9.71;86.54;100103.06;7393190;19;20019;-67
2021/12/25 11:18:15;;;;;;;2.70;0.50;;;;;;;9.69;86.79;100099.78;7392370;19;20036;-68
2021/12/25 11:20:44;;;;;;;1.02;0.63;;;;;;;9.72;87.82;100101.25;7391876;19;20015;-67
2021/12/25 11:23:15;;;;;;;2.00;0.40;;;;;;;9.69;87.35;100096.34;7390481;19;20015;-67
2021/12/25 11:25:45;;;;;;;2.35;0.30;;;;;;;9.71;86.84;100089.09;7392101;19;20118;-67
2021/12/25 11:28:18;;;;;;;2.28;0.40;;;;;;;9.71;87.28;100082.03;7393656;19;20019;-68
2021/12/25 11:30:50;;;;;;;2.08;0.35;;;;;;;9.72;87.13;100088.13;7392479;19;20006;-68
2021/12/25 11:33:17;;;;;;;2.55;0.57;;;;;;;9.66;87.38;100075.66;7393886;19;20743;-69
2021/12/25 11:35:45;;;;;;;5.53;1.02;;;;;;;9.66;87.78;100094.84;7392797;19;20041;-67
2021/12/25 11:38:13;;;;;;;2.80;0.60;;;;;;;9.65;87.65;100081.91;7389648;19;20014;-67
2021/12/25 11:40:48;;;;;;;3.53;0.60;;;;;;;9.64;87.64;100093.41;7393193;19;20014;-68
2021/12/25 11:43:16;;;;;;;3.15;0.68;;;;;;;9.60;87.69;100078.97;7390775;19;20476;-68
2021/12/25 11:45:53;;;;;;;2.53;0.70;;;;;;;9.60;88.26;100077.13;7392015;19;20027;-69
2021/12/25 11:48:21;;;;;;;5.82;0.70;;;;;;;9.58;87.67;100063.34;7391116;19;20046;-68
2021/12/25 11:50:52;;;;;;;3.63;0.90;;;;;;;9.55;88.03;100066.28;7389695;19;20015;-67
2021/12/25 11:54:04;;;;;;;5.05;0.68;;;;;;;9.56;87.85;100077.63;7392106;19;20052;-68
2021/12/25 11:56:39;;;;;;;6.57;1.00;;;;;;;9.53;88.38;100080.59;7392139;19;20078;-67
2021/12/25 11:59:11;;;;;;;5.82;0.90;;;;;;;9.51;88.41;100078.13;7389003;19;20368;-67
2021/12/25 12:01:42;;;;;;;;;;;;;;;9.54;88.01;100069.09;7391769;19;20063;-68
2021/12/25 12:04:10;;;;;;;3.83;1.00;;;;;;;9.46;88.39;100075.16;7390485;19;19959;-66
2021/12/25 12:06:44;;;;;;;4.13;1.40;;;;;;;9.47;88.44;100074.19;7389716;19;20479;-67
2021/12/25 12:09:18;;;;;;;7.30;1.00;;;;;;;9.48;88.44;100077.63;7387112;19;20015;-69
2021/12/25 12:11:50;;;;;;;9.43;1.85;;;;;;;9.45;88.52;100076.16;7387504;19;20015;-66
2021/12/25 12:14:21;;;;;;;5.45;1.40;;;;;;;9.43;88.69;100070.25;7389233;19;20018;-66
2021/12/25 12:16:53;;;;;;;5.68;1.92;;;;;;;9.46;88.96;100077.78;7392708;19;20006;-66
2021/12/25 12:19:28;;;;;;;9.40;1.90;;;;;;;9.42;88.49;100066.81;7388629;19;20015;-68
2021/12/25 12:21:56;;;;;;;6.18;1.60;;;;;;;9.44;88.42;100070.09;7393143;19;20003;-68
2021/12/25 12:27:04;;;;;;;7.50;1.60;;;;;;;9.45;88.36;100063.84;7390623;19;20024;-68
2021/12/25 12:29:38;;;;;;;11.15;3.28;;;;;;;9.50;88.88;100070.44;7387808;19;20011;-69
2021/12/25 12:32:26;;;;;;;11.45;2.20;;;;;;;9.43;88.63;100068.44;7387884;19;20502;-67
2021/12/25 12:34:54;;;;;;;8.50;1.85;;;;;;;9.41;88.05;100069.59;7387247;19;20014;-68
2021/12/25 12:37:24;;;;;;;4.63;1.88;;;;;;;9.41;88.17;100069.59;7387455;19;20009;-70
2021/12/25 12:39:56;;;;;;;2.97;1.55;;;;;;;9.41;88.08;100066.97;7389757;19;20455;-68
2021/12/25 12:42:30;;;;;;;8.67;1.57;;;;;;;9.43;87.56;100065.00;7389862;19;20014;-68
2021/12/25 12:45:08;;;;;;;4.35;1.75;;;;;;;9.41;87.61;100059.09;7393956;19;20303;-68
2021/12/25 12:47:36;;;;;;;10.52;2.35;;;;;;;9.41;88.40;100065.16;7386468;19;20037;-66
2021/12/25 12:50:07;;;;;;;7.82;2.30;;;;;;;9.40;87.99;100054.81;7390023;19;20050;-68
2021/12/25 12:52:39;;;;;;;7.60;2.08;;;;;;;9.40;87.77;100057.44;7385960;19;20007;-68
2021/12/25 12:55:08;;;;;;;4.88;1.63;;;;;;;9.41;87.77;100056.47;7385634;19;20017;-68
2021/12/25 12:57:42;;;;;;;9.80;2.47;;;;;;;9.42;87.81;100050.22;7387294;19;20007;-67
2021/12/25 13:00:10;;;;;;;6.25;1.95;;;;;;;9.42;88.08;100055.47;7388844;19;20019;-68
2021/12/25 13:02:41;;;;;;;6.93;1.85;;;;;;;9.41;87.66;100045.97;7388247;19;20026;-68
2021/12/25 13:05:10;;;;;;;7.13;2.03;;;;;;;9.45;87.96;100039.38;7386132;19;20026;-67
2021/12/25 13:07:40;;;;;;;8.52;1.77;;;;;;;9.49;88.03;100045.16;7385204;19;20589;-68
2021/12/25 13:10:20;;;;;;;8.27;2.00;;;;;;;9.53;87.14;100047.28;7386783;19;20478;-66
2021/12/25 13:12:56;;;;;;;7.35;1.90;;;;;;;9.54;86.85;100054.19;7383219;19;20014;-67
2021/12/25 13:15:27;;;;;;;;;;;;;;;9.55;86.86;100047.91;7389534;19;20022;-66
2021/12/25 13:17:58;;;;;;;5.80;2.30;;;;;;;9.50;86.52;100052.03;7386201;19;19914;-69
2021/12/25 13:20:32;;;;;;;3.90;1.80;;;;;;;9.46;86.63;100046.28;7386797;19;20014;-68